createdAt,value
2019-03-09T00:00:30.362Z,-456.00
2019-03-09T00:01:30.631Z,-459.02
2019-03-09T00:02:30.920Z,-454.80
2019-03-09T00:03:31.220Z,-456.89
2019-03-09T00:04:31.496Z,-454.96
2019-03-09T00:05:31.813Z,-456.83
2019-03-09T00:06:32.044Z,-452.33
2019-03-09T00:07:32.370Z,-457.75
2019-03-09T00:08:32.634Z,-456.71
2019-03-09T00:09:32.908Z,-454.71
2019-03-09T00:10:33.238Z,-455.21
2019-03-09T00:11:33.470Z,-456.24
2019-03-09T00:12:33.743Z,-455.23
2019-03-09T00:13:34.069Z,-451.72
2019-03-09T00:14:34.336Z,-458.31
2019-03-09T00:15:34.730Z,-456.22
2019-03-09T00:16:34.956Z,-455.47
2019-03-09T00:17:35.197Z,-458.12
2019-03-09T00:18:35.504Z,-457.96
2019-03-09T00:19:35.772Z,-457.02
2019-03-09T00:20:36.137Z,-459.78
2019-03-09T00:21:36.345Z,-455.56
2019-03-09T00:22:36.609Z,-456.65
2019-03-09T00:23:36.944Z,-457.98
2019-03-09T00:24:37.306Z,-457.39
2019-03-09T00:25:37.536Z,-453.39
2019-03-09T00:26:37.756Z,-456.31
2019-03-09T00:27:38.026Z,-456.00
2019-03-09T00:28:38.569Z,-456.79
2019-03-09T00:29:38.859Z,-457.90
2019-03-09T00:30:39.198Z,-457.14
2019-03-09T00:31:39.433Z,-456.88
2019-03-09T00:32:39.824Z,-460.58
2019-03-09T00:33:44.129Z,-433.45
2019-03-09T00:34:40.274Z,-459.95
2019-03-09T00:35:40.624Z,-459.16
2019-03-09T00:36:40.847Z,-458.42
2019-03-09T00:37:41.145Z,-461.34
2019-03-09T00:38:41.450Z,-459.46
2019-03-09T00:39:41.700Z,-456.77
2019-03-09T00:40:42.034Z,-459.74
2019-03-09T00:41:42.258Z,-459.25
2019-03-09T00:42:42.557Z,-460.33
2019-03-09T00:43:42.863Z,-460.69
2019-03-09T00:44:43.125Z,-460.73
2019-03-09T00:45:43.427Z,-461.10
2019-03-09T00:46:43.690Z,-459.27
2019-03-09T00:47:43.990Z,-459.82
2019-03-09T00:48:44.330Z,-460.57
2019-03-09T00:49:44.558Z,-461.90
2019-03-09T00:50:44.876Z,-461.14
2019-03-09T00:51:45.152Z,-463.18
2019-03-09T00:52:45.449Z,-461.15
2019-03-09T00:53:45.752Z,-463.21
2019-03-09T00:54:46.019Z,-459.98
2019-03-09T00:55:46.326Z,-460.32
2019-03-09T00:56:46.602Z,-460.59
2019-03-09T00:57:47.015Z,-460.21
2019-03-09T00:58:47.228Z,-460.75
2019-03-09T00:59:47.492Z,-460.03
2019-03-09T01:00:47.778Z,-459.71
2019-03-09T01:01:48.061Z,-459.78
2019-03-09T01:02:48.346Z,-461.45
2019-03-09T01:03:48.649Z,-461.01
2019-03-09T01:04:48.914Z,-458.89
2019-03-09T01:05:49.331Z,-460.45
2019-03-09T01:06:49.494Z,-458.25
2019-03-09T01:07:49.775Z,-460.48
2019-03-09T01:08:50.099Z,-460.25
2019-03-09T01:09:50.354Z,-460.82
2019-03-09T01:10:50.650Z,-458.96
2019-03-09T01:11:50.954Z,-456.73
2019-03-09T01:12:51.202Z,-457.60
2019-03-09T01:13:51.575Z,-458.89
2019-03-09T01:14:51.787Z,-460.25
2019-03-09T01:15:52.074Z,-461.40
2019-03-09T01:16:52.386Z,-460.30
2019-03-09T01:17:52.644Z,-460.68
2019-03-09T01:18:52.956Z,-459.22
2019-03-09T01:19:53.218Z,-457.96
2019-03-09T01:20:53.496Z,-459.33
2019-03-09T01:21:53.866Z,-460.98
2019-03-09T01:22:54.046Z,-459.78
2019-03-09T01:23:54.336Z,-458.84
2019-03-09T01:24:54.603Z,-459.83
2019-03-09T01:25:54.906Z,-458.52
2019-03-09T01:26:55.212Z,-461.19
2019-03-09T01:27:55.478Z,-460.20
2019-03-09T01:28:55.785Z,-461.46
2019-03-09T01:29:56.081Z,-458.21
2019-03-09T01:30:56.365Z,-461.37
2019-03-09T01:31:56.667Z,-457.23
2019-03-09T01:32:56.900Z,-460.20
2019-03-09T01:33:57.203Z,-459.97
2019-03-09T01:34:57.472Z,-461.12
2019-03-09T01:35:57.738Z,-459.75
2019-03-09T01:36:58.078Z,-459.29
2019-03-09T01:37:58.339Z,-459.71
2019-03-09T01:38:58.747Z,-458.68
2019-03-09T01:40:03.698Z,-458.50
2019-03-09T01:40:59.167Z,-461.03
2019-03-09T01:41:59.501Z,-459.36
2019-03-09T01:42:59.750Z,-457.08
2019-03-09T01:44:00.049Z,-457.70
2019-03-09T01:45:00.362Z,-461.03
2019-03-09T01:46:00.647Z,-456.83
2019-03-09T01:47:01.053Z,-458.80
2019-03-09T01:48:01.199Z,-460.28
2019-03-09T01:49:01.476Z,-460.08
2019-03-09T01:50:01.741Z,-459.43
2019-03-09T01:51:02.026Z,-461.98
2019-03-09T01:52:02.309Z,-459.64
2019-03-09T01:53:02.624Z,-460.27
2019-03-09T01:54:02.916Z,-462.33
2019-03-09T01:55:03.236Z,-459.01
2019-03-09T01:56:03.444Z,-460.79
2019-03-09T01:57:03.759Z,-459.04
2019-03-09T01:58:04.017Z,-459.52
2019-03-09T01:59:04.322Z,-458.47
2019-03-09T02:00:04.597Z,-458.78
2019-03-09T02:01:04.874Z,-459.78
2019-03-09T02:02:05.179Z,-459.62
2019-03-09T02:03:05.483Z,-459.43
2019-03-09T02:04:05.686Z,-458.03
2019-03-09T02:05:06.003Z,-457.88
2019-03-09T02:06:06.294Z,-460.30
2019-03-09T02:07:06.820Z,-460.12
2019-03-09T02:08:06.893Z,-460.80
2019-03-09T02:09:07.145Z,-454.74
2019-03-09T02:10:07.431Z,-458.82
2019-03-09T02:11:07.771Z,-457.21
2019-03-09T02:12:08.147Z,-458.27
2019-03-09T02:13:08.329Z,-457.34
2019-03-09T02:14:08.603Z,-455.72
2019-03-09T02:15:08.889Z,-457.61
2019-03-09T02:16:09.190Z,-456.97
2019-03-09T02:17:09.509Z,-456.32
2019-03-09T02:18:09.804Z,-455.28
2019-03-09T02:19:10.062Z,-458.15
2019-03-09T02:20:10.485Z,-457.13
2019-03-09T02:21:10.618Z,-457.44
2019-03-09T02:22:10.921Z,-459.20
2019-03-09T02:23:11.202Z,-456.03
2019-03-09T02:24:11.474Z,-455.97
2019-03-09T02:25:11.786Z,-454.27
2019-03-09T02:26:12.039Z,-453.57
2019-03-09T02:27:12.354Z,-455.54
2019-03-09T02:28:12.707Z,-455.53
2019-03-09T02:29:12.890Z,-453.37
2019-03-09T02:30:13.197Z,-451.66
2019-03-09T02:31:13.460Z,-452.27
2019-03-09T02:32:13.777Z,-428.92
2019-03-09T02:33:14.044Z,-452.15
2019-03-09T02:34:14.324Z,-451.17
2019-03-09T02:35:14.620Z,-450.86
2019-03-09T02:36:14.963Z,-453.04
2019-03-09T02:37:15.169Z,-453.64
2019-03-09T02:38:15.439Z,-452.34
2019-03-09T02:39:15.727Z,-453.69
2019-03-09T02:40:16.033Z,-455.72
2019-03-09T02:41:16.298Z,-455.44
2019-03-09T02:42:16.614Z,-456.53
2019-03-09T02:43:16.880Z,-455.20
2019-03-09T02:44:17.189Z,-457.58
2019-03-09T02:45:17.497Z,-457.92
2019-03-09T02:46:17.728Z,-457.70
2019-03-09T02:47:18.050Z,-458.98
2019-03-09T02:48:18.304Z,-459.24
2019-03-09T02:49:18.573Z,-459.65
2019-03-09T02:50:18.880Z,-458.16
2019-03-09T02:51:19.148Z,-457.42
2019-03-09T02:52:19.457Z,-459.19
2019-03-09T02:53:19.847Z,-460.61
2019-03-09T02:54:19.988Z,-459.10
2019-03-09T02:55:20.301Z,-460.09
2019-03-09T02:56:20.567Z,-458.50
2019-03-09T02:57:20.865Z,-457.00
2019-03-09T02:58:21.155Z,-459.42
2019-03-09T02:59:21.411Z,-459.44
2019-03-09T03:00:21.706Z,-458.24
2019-03-09T03:01:22.134Z,-458.23
2019-03-09T03:02:22.286Z,-460.50
2019-03-09T03:03:22.575Z,-460.49
2019-03-09T03:04:22.862Z,-459.40
2019-03-09T03:05:23.127Z,-461.08
2019-03-09T03:06:23.407Z,-457.56
2019-03-09T03:07:23.695Z,-459.04
2019-03-09T03:08:23.985Z,-459.24
2019-03-09T03:09:24.305Z,-460.09
2019-03-09T03:10:24.551Z,-458.50
2019-03-09T03:11:24.801Z,-459.03
2019-03-09T03:12:25.105Z,-458.01
2019-03-09T03:13:25.422Z,-458.80
2019-03-09T03:14:25.687Z,-460.00
2019-03-09T03:15:25.993Z,-458.72
2019-03-09T03:16:26.253Z,-458.15
2019-03-09T03:17:26.563Z,-459.45
2019-03-09T03:18:26.847Z,-457.32
2019-03-09T03:19:27.129Z,-457.34
2019-03-09T03:20:27.429Z,-461.63
2019-03-09T03:21:27.697Z,-459.82
2019-03-09T03:22:27.968Z,-461.15
2019-03-09T03:23:28.278Z,-457.89
2019-03-09T03:24:28.556Z,-462.17
2019-03-09T03:25:28.869Z,-458.48
2019-03-09T03:26:29.189Z,-459.86
2019-03-09T03:27:29.388Z,-461.27
2019-03-09T03:28:29.716Z,-457.27
2019-03-09T03:29:29.989Z,-457.49
2019-03-09T03:30:30.298Z,-460.14
2019-03-09T03:31:30.559Z,-460.13
2019-03-09T03:32:30.843Z,-459.78
2019-03-09T03:33:31.153Z,-434.08
2019-03-09T03:34:31.503Z,-436.37
2019-03-09T03:35:31.707Z,-434.98
2019-03-09T03:36:31.996Z,-435.33
2019-03-09T03:37:32.263Z,-435.34
2019-03-09T03:38:32.557Z,-434.90
2019-03-09T03:39:32.818Z,-437.46
2019-03-09T03:40:33.136Z,-435.25
2019-03-09T03:41:33.402Z,-433.57
2019-03-09T03:42:33.796Z,-433.41
2019-03-09T03:43:34.224Z,-434.28
2019-03-09T03:44:34.227Z,-436.90
2019-03-09T03:45:34.533Z,-434.62
2019-03-09T03:46:34.815Z,-435.59
2019-03-09T03:47:35.103Z,-434.11
2019-03-09T03:48:35.419Z,-436.07
2019-03-09T03:49:35.671Z,-433.96
2019-03-09T03:50:36.009Z,-432.98
2019-03-09T03:51:36.219Z,-433.63
2019-03-09T03:52:36.524Z,-434.70
2019-03-09T03:53:36.832Z,-436.87
2019-03-09T03:54:37.092Z,-433.56
2019-03-09T03:55:37.402Z,-435.40
2019-03-09T03:56:37.674Z,-436.01
2019-03-09T03:57:37.941Z,-435.08
2019-03-09T03:58:38.301Z,-436.45
2019-03-09T03:59:38.637Z,-435.56
2019-03-09T04:00:38.828Z,-434.08
2019-03-09T04:01:39.096Z,-434.39
2019-03-09T04:02:39.376Z,-433.80
2019-03-09T04:03:39.700Z,-433.94
2019-03-09T04:04:39.955Z,-434.86
2019-03-09T04:05:40.260Z,-431.76
2019-03-09T04:06:40.541Z,-433.34
2019-03-09T04:07:40.932Z,-434.64
2019-03-09T04:08:41.126Z,-434.02
2019-03-09T04:09:41.405Z,-435.40
2019-03-09T04:10:41.686Z,-436.77
2019-03-09T04:11:41.949Z,-434.81
2019-03-09T04:12:42.217Z,-435.30
2019-03-09T04:13:42.554Z,-432.06
2019-03-09T04:14:42.854Z,-434.93
2019-03-09T04:15:43.214Z,-433.89
2019-03-09T04:16:43.370Z,-436.50
2019-03-09T04:17:43.689Z,-436.43
2019-03-09T04:18:43.945Z,-437.13
2019-03-09T04:19:44.256Z,-433.87
2019-03-09T04:20:44.511Z,-433.95
2019-03-09T04:21:44.813Z,-434.50
2019-03-09T04:22:45.102Z,-434.51
2019-03-09T04:23:45.435Z,-436.95
2019-03-09T04:24:45.645Z,-434.14
2019-03-09T04:25:45.943Z,-436.44
2019-03-09T04:26:46.243Z,-427.42
2019-03-09T04:27:46.513Z,-432.65
2019-03-09T04:28:46.835Z,-435.84
2019-03-09T04:29:47.076Z,-433.90
2019-03-09T04:30:47.350Z,-435.79
2019-03-09T04:31:47.692Z,-434.88
2019-03-09T04:32:47.978Z,-438.48
2019-03-09T04:33:48.299Z,-435.94
2019-03-09T04:34:48.558Z,-435.62
2019-03-09T04:35:48.829Z,-434.31
2019-03-09T04:36:49.153Z,-436.08
2019-03-09T04:37:49.430Z,-435.30
2019-03-09T04:38:49.740Z,-436.50
2019-03-09T04:39:50.032Z,-436.21
2019-03-09T04:40:50.408Z,-438.74
2019-03-09T04:41:50.587Z,-436.48
2019-03-09T04:42:50.854Z,-438.10
2019-03-09T04:43:51.187Z,-436.62
2019-03-09T04:44:51.454Z,-439.61
2019-03-09T04:45:51.708Z,-435.77
2019-03-09T04:46:51.995Z,-439.03
2019-03-09T04:47:52.257Z,-438.31
2019-03-09T04:48:52.712Z,-438.26
2019-03-09T04:49:52.872Z,-437.02
2019-03-09T04:50:53.134Z,-436.46
2019-03-09T04:51:53.425Z,-435.75
2019-03-09T04:52:53.707Z,-435.50
2019-03-09T04:53:54.028Z,-435.83
2019-03-09T04:54:54.323Z,-436.91
2019-03-09T04:55:54.581Z,-437.95
2019-03-09T04:56:54.925Z,-439.65
2019-03-09T04:57:55.116Z,-437.54
2019-03-09T04:58:55.438Z,-437.58
2019-03-09T04:59:55.716Z,-438.61
2019-03-09T05:00:55.991Z,-438.00
2019-03-09T05:01:56.295Z,-434.20
2019-03-09T05:02:56.563Z,-438.61
2019-03-09T05:03:56.857Z,-438.31
2019-03-09T05:04:58.840Z,-436.66
2019-03-09T05:05:57.409Z,-437.46
2019-03-09T05:06:57.720Z,-437.12
2019-03-09T05:08:02.254Z,-435.25
2019-03-09T05:08:58.294Z,-434.68
2019-03-09T05:09:58.537Z,-434.41
2019-03-09T05:10:58.845Z,-435.99
2019-03-09T05:11:59.167Z,-436.08
2019-03-09T05:12:59.457Z,-437.03
2019-03-09T05:13:59.765Z,-435.63
2019-03-09T05:14:59.999Z,-433.45
2019-03-09T05:16:00.291Z,-434.64
2019-03-09T05:17:00.607Z,-434.53
2019-03-09T05:18:00.875Z,-434.94
2019-03-09T05:19:01.185Z,-436.99
2019-03-09T05:20:01.446Z,-433.59
2019-03-09T05:21:01.834Z,-434.65
2019-03-09T05:22:02.149Z,-436.71
2019-03-09T05:23:02.296Z,-437.04
2019-03-09T05:24:02.601Z,-437.33
2019-03-09T05:25:02.860Z,-435.09
2019-03-09T05:26:03.127Z,-439.44
2019-03-09T05:27:03.423Z,-435.90
2019-03-09T05:28:03.704Z,-435.35
2019-03-09T05:29:04.058Z,-433.84
2019-03-09T05:30:04.380Z,-435.46
2019-03-09T05:31:04.544Z,-434.84
2019-03-09T05:32:04.860Z,-438.30
2019-03-09T05:33:05.142Z,-437.11
2019-03-09T05:34:05.456Z,-438.08
2019-03-09T05:35:05.726Z,-432.89
2019-03-09T05:36:05.996Z,-437.77
2019-03-09T05:37:06.298Z,-436.65
2019-03-09T05:38:06.598Z,-435.44
2019-03-09T05:39:06.855Z,-435.16
2019-03-09T05:40:07.124Z,-434.86
2019-03-09T05:41:07.405Z,-436.30
2019-03-09T05:42:07.710Z,-435.59
2019-03-09T05:43:07.974Z,-435.91
2019-03-09T05:44:08.301Z,-437.08
2019-03-09T05:45:08.594Z,-437.64
2019-03-09T05:46:08.879Z,-437.14
2019-03-09T05:47:09.130Z,-432.28
2019-03-09T05:48:09.410Z,-437.93
2019-03-09T05:49:09.683Z,-436.16
2019-03-09T05:50:10.001Z,-435.58
2019-03-09T05:51:10.296Z,-436.13
2019-03-09T05:52:10.596Z,-435.75
2019-03-09T05:53:10.862Z,-434.61
2019-03-09T05:54:11.170Z,-435.00
2019-03-09T05:55:11.577Z,-434.85
2019-03-09T05:56:11.719Z,-434.83
2019-03-09T05:57:12.014Z,-431.71
2019-03-09T05:58:12.285Z,-433.77
2019-03-09T05:59:12.565Z,-436.35
2019-03-09T06:00:12.881Z,-437.73
2019-03-09T06:01:13.134Z,-428.61
2019-03-09T06:02:13.452Z,-435.14
2019-03-09T06:03:13.835Z,-431.59
2019-03-09T06:04:13.990Z,-437.18
2019-03-09T06:05:14.294Z,-434.96
2019-03-09T06:06:14.567Z,-434.52
2019-03-09T06:07:14.872Z,-435.06
2019-03-09T06:08:15.155Z,-431.19
2019-03-09T06:09:15.434Z,-428.86
2019-03-09T06:10:15.805Z,-430.39
2019-03-09T06:11:15.999Z,-428.97
2019-03-09T06:12:16.288Z,-435.77
2019-03-09T06:13:16.559Z,-432.98
2019-03-09T06:14:16.840Z,-433.30
2019-03-09T06:15:17.177Z,-434.01
2019-03-09T06:16:17.389Z,-431.76
2019-03-09T06:17:17.712Z,-434.05
2019-03-09T06:18:17.997Z,-434.81
2019-03-09T06:19:18.336Z,-434.49
2019-03-09T06:20:18.573Z,-431.69
2019-03-09T06:21:18.831Z,-432.45
2019-03-09T06:22:19.118Z,-433.25
2019-03-09T06:23:19.402Z,-431.75
2019-03-09T06:24:19.688Z,-433.00
2019-03-09T06:25:20.081Z,-431.99
2019-03-09T06:26:20.262Z,-433.33
2019-03-09T06:27:20.584Z,-432.46
2019-03-09T06:28:20.858Z,-430.58
2019-03-09T06:29:21.114Z,-433.43
2019-03-09T06:30:21.417Z,-434.50
2019-03-09T06:31:21.704Z,-434.07
2019-03-09T06:32:21.984Z,-435.11
2019-03-09T06:34:16.373Z,-359.69
2019-03-09T06:35:16.678Z,-432.88
2019-03-09T06:36:16.993Z,-433.18
2019-03-09T06:37:17.209Z,-432.19
2019-03-09T06:38:17.540Z,-432.46
2019-03-09T06:39:17.789Z,-435.01
2019-03-09T06:40:18.108Z,-435.36
2019-03-09T06:41:18.365Z,-436.71
2019-03-09T06:42:18.650Z,-433.74
2019-03-09T06:43:18.936Z,-432.94
2019-03-09T06:44:19.218Z,-432.97
2019-03-09T06:45:19.633Z,-435.63
2019-03-09T06:46:19.829Z,-434.00
2019-03-09T06:47:20.089Z,-433.80
2019-03-09T06:48:20.376Z,-433.64
2019-03-09T06:49:20.667Z,-431.41
2019-03-09T06:50:20.967Z,-433.00
2019-03-09T06:51:21.220Z,-430.60
2019-03-09T06:52:21.505Z,-432.77
2019-03-09T06:53:21.918Z,-432.56
2019-03-09T06:54:22.078Z,-432.93
2019-03-09T06:55:22.591Z,-433.72
2019-03-09T06:56:22.681Z,-434.08
2019-03-09T06:57:22.934Z,-432.32
2019-03-09T06:58:23.235Z,-431.42
2019-03-09T06:59:23.486Z,-432.70
2019-03-09T07:00:24.042Z,-432.33
2019-03-09T07:01:24.129Z,-433.09
2019-03-09T07:02:24.337Z,-433.50
2019-03-09T07:03:24.646Z,-431.68
2019-03-09T07:04:24.912Z,-431.80
2019-03-09T07:05:25.202Z,-430.34
2019-03-09T07:06:25.495Z,-432.24
2019-03-09T07:07:25.780Z,-432.12
2019-03-09T07:08:26.086Z,-433.04
2019-03-09T07:09:26.405Z,-432.37
2019-03-09T07:10:26.606Z,-432.29
2019-03-09T07:11:26.887Z,-433.02
2019-03-09T07:12:27.187Z,-430.37
2019-03-09T07:13:27.488Z,-433.19
2019-03-09T07:14:27.756Z,-430.53
2019-03-09T07:15:28.081Z,-430.53
2019-03-09T07:16:28.345Z,-429.63
2019-03-09T07:17:28.626Z,-427.93
2019-03-09T07:18:28.987Z,-429.68
2019-03-09T07:19:29.190Z,-428.86
2019-03-09T07:20:29.476Z,-430.11
2019-03-09T07:21:29.783Z,-429.92
2019-03-09T07:22:30.037Z,-428.39
2019-03-09T07:23:30.358Z,-428.53
2019-03-09T07:24:30.625Z,-430.60
2019-03-09T07:25:30.904Z,-428.20
2019-03-09T07:26:31.345Z,-427.88
2019-03-09T07:27:31.473Z,-427.23
2019-03-09T07:28:31.787Z,-431.15
2019-03-09T07:29:32.064Z,-431.03
2019-03-09T07:30:32.350Z,-429.01
2019-03-09T07:31:32.662Z,-432.32
2019-03-09T07:32:32.927Z,-432.18
2019-03-09T07:33:33.197Z,-432.25
2019-03-09T07:34:33.588Z,-430.01
2019-03-09T07:35:33.759Z,-431.82
2019-03-09T07:36:34.074Z,-429.57
2019-03-09T07:37:34.330Z,-431.83
2019-03-09T07:38:34.625Z,-433.33
2019-03-09T07:39:34.885Z,-430.41
2019-03-09T07:40:35.186Z,-434.38
2019-03-09T07:41:35.502Z,-430.88
2019-03-09T07:42:35.795Z,-433.08
2019-03-09T07:43:36.041Z,-433.72
2019-03-09T07:44:36.287Z,-434.30
2019-03-09T07:45:36.587Z,-434.87
2019-03-09T07:46:36.911Z,-434.13
2019-03-09T07:47:37.167Z,-436.50
2019-03-09T07:48:37.466Z,-435.10
2019-03-09T07:49:37.744Z,-435.27
2019-03-09T07:50:38.029Z,-436.38
2019-03-09T07:51:38.372Z,-435.37
2019-03-09T07:52:38.593Z,-432.06
2019-03-09T07:53:38.897Z,-432.86
2019-03-09T07:54:39.162Z,-435.82
2019-03-09T07:55:39.429Z,-435.96
2019-03-09T07:56:39.755Z,-436.46
2019-03-09T07:57:40.014Z,-432.95
2019-03-09T07:58:40.342Z,-436.18
2019-03-09T07:59:40.668Z,-435.25
2019-03-09T08:00:40.853Z,-436.81
2019-03-09T08:01:41.203Z,-436.26
2019-03-09T08:02:41.433Z,-434.83
2019-03-09T08:03:41.730Z,-436.03
2019-03-09T08:04:42.003Z,-435.62
2019-03-09T08:05:42.288Z,-436.50
2019-03-09T08:06:42.610Z,-435.51
2019-03-09T08:07:42.963Z,-437.68
2019-03-09T08:08:43.149Z,-435.81
2019-03-09T08:09:43.419Z,-436.81
2019-03-09T08:10:43.709Z,-433.14
2019-03-09T08:11:43.995Z,-434.30
2019-03-09T08:12:44.281Z,-434.29
2019-03-09T08:13:44.571Z,-434.18
2019-03-09T08:14:44.859Z,-434.58
2019-03-09T08:15:45.174Z,-433.70
2019-03-09T08:16:45.431Z,-434.33
2019-03-09T08:17:45.681Z,-435.91
2019-03-09T08:18:45.988Z,-438.64
2019-03-09T08:19:46.285Z,-436.40
2019-03-09T08:20:46.562Z,-435.50
2019-03-09T08:21:46.877Z,-434.81
2019-03-09T08:22:47.150Z,-432.49
2019-03-09T08:23:47.434Z,-434.43
2019-03-09T08:24:47.756Z,-436.45
2019-03-09T08:25:48.035Z,-439.52
2019-03-09T08:26:48.344Z,-463.71
2019-03-09T08:27:48.614Z,-462.25
2019-03-09T08:28:48.861Z,-462.80
2019-03-09T08:29:49.153Z,-465.78
2019-03-09T08:30:49.436Z,-464.94
2019-03-09T08:31:49.742Z,-460.61
2019-03-09T08:32:50.169Z,-461.01
2019-03-09T08:33:50.276Z,-462.20
2019-03-09T08:34:50.581Z,-463.78
2019-03-09T08:35:50.863Z,-460.19
2019-03-09T08:36:51.163Z,-465.80
2019-03-09T08:37:51.454Z,-462.23
2019-03-09T08:38:51.700Z,-463.33
2019-03-09T08:39:51.984Z,-462.41
2019-03-09T08:40:52.433Z,-460.70
2019-03-09T08:41:52.555Z,-467.63
2019-03-09T08:42:52.869Z,-467.37
2019-03-09T08:43:53.104Z,-463.43
2019-03-09T08:44:53.397Z,-465.07
2019-03-09T08:45:53.664Z,-462.23
2019-03-09T08:46:53.971Z,-461.98
2019-03-09T08:47:54.281Z,-464.81
2019-03-09T08:48:54.570Z,-464.03
2019-03-09T08:49:54.806Z,-465.22
2019-03-09T08:50:55.077Z,-458.99
2019-03-09T08:51:55.370Z,-462.07
2019-03-09T08:52:55.703Z,-465.23
2019-03-09T08:53:55.969Z,-467.24
2019-03-09T08:54:56.230Z,-464.99
2019-03-09T08:55:56.493Z,-462.32
2019-03-09T08:56:56.834Z,-464.30
2019-03-09T08:57:57.052Z,-463.73
2019-03-09T08:58:57.355Z,-460.98
2019-03-09T08:59:57.736Z,-462.28
2019-03-09T09:00:57.939Z,-464.14
2019-03-09T09:01:58.233Z,-462.12
2019-03-09T09:02:58.488Z,-463.88
2019-03-09T09:03:58.762Z,-466.54
2019-03-09T09:04:59.143Z,-463.82
2019-03-09T09:05:59.454Z,-463.08
2019-03-09T09:07:06.232Z,-461.78
2019-03-09T09:07:59.935Z,-463.51
2019-03-09T09:09:00.257Z,-461.13
2019-03-09T09:10:00.486Z,-462.30
2019-03-09T09:11:00.762Z,-461.78
2019-03-09T09:12:01.108Z,-459.81
2019-03-09T09:13:01.368Z,-459.85
2019-03-09T09:14:01.715Z,-466.18
2019-03-09T09:15:01.908Z,-464.09
2019-03-09T09:16:02.187Z,-457.81
2019-03-09T09:17:02.485Z,-459.44
2019-03-09T09:18:02.767Z,-460.53
2019-03-09T09:19:03.053Z,-460.76
2019-03-09T09:20:03.340Z,-461.74
2019-03-09T09:21:03.597Z,-465.97
2019-03-09T09:22:03.957Z,-461.68
2019-03-09T09:23:04.180Z,-461.29
2019-03-09T09:24:04.424Z,-465.92
2019-03-09T09:25:04.796Z,-465.03
2019-03-09T09:26:05.003Z,-464.04
2019-03-09T09:27:05.290Z,-461.95
2019-03-09T09:28:05.598Z,-467.64
2019-03-09T09:29:05.874Z,-468.45
2019-03-09T09:30:06.188Z,-468.06
2019-03-09T09:31:06.424Z,-464.18
2019-03-09T09:32:06.726Z,-462.41
2019-03-09T09:33:07.035Z,-464.42
2019-03-09T09:34:07.294Z,-465.26
2019-03-09T09:35:07.603Z,-471.95
2019-03-09T09:36:07.849Z,-465.94
2019-03-09T09:37:08.144Z,-454.99
2019-03-09T09:38:08.508Z,-461.02
2019-03-09T09:39:08.789Z,-473.67
2019-03-09T09:40:09.056Z,-471.67
2019-03-09T09:41:09.302Z,-473.05
2019-03-09T09:42:09.581Z,-472.14
2019-03-09T09:43:09.921Z,-471.94
2019-03-09T09:44:10.171Z,-477.59
2019-03-09T09:45:10.468Z,-476.73
2019-03-09T09:46:10.785Z,-480.42
2019-03-09T09:47:11.129Z,-475.42
2019-03-09T09:48:11.329Z,-477.41
2019-03-09T09:49:11.586Z,-477.18
2019-03-09T09:50:11.885Z,-478.24
2019-03-09T09:51:12.153Z,-473.98
2019-03-09T09:52:12.415Z,-471.08
2019-03-09T09:53:12.727Z,-471.11
2019-03-09T09:54:13.014Z,-475.27
2019-03-09T09:55:13.596Z,-478.50
2019-03-09T09:56:13.567Z,-471.58
2019-03-09T09:57:13.837Z,-476.72
2019-03-09T09:58:14.163Z,-472.03
2019-03-09T09:59:14.619Z,-468.99
2019-03-09T10:00:14.737Z,-475.94
2019-03-09T10:01:15.012Z,-472.97
2019-03-09T10:02:15.289Z,-471.98
2019-03-09T10:03:15.634Z,-478.18
2019-03-09T10:04:15.845Z,-472.06
2019-03-09T10:05:16.161Z,-477.16
2019-03-09T10:06:16.427Z,-478.63
2019-03-09T10:07:16.722Z,-480.81
2019-03-09T10:08:17.023Z,-478.70
2019-03-09T10:09:17.280Z,-471.68
2019-03-09T10:10:17.565Z,-472.31
2019-03-09T10:11:17.906Z,-478.12
2019-03-09T10:12:18.110Z,-479.40
2019-03-09T10:13:18.428Z,-479.00
2019-03-09T10:14:18.686Z,-477.74
2019-03-09T10:15:19.034Z,-477.19
2019-03-09T10:16:19.256Z,-478.30
2019-03-09T10:17:19.564Z,-448.63
2019-03-09T10:18:20.138Z,-474.74
2019-03-09T10:19:20.144Z,-480.07
2019-03-09T10:20:20.509Z,-478.97
2019-03-09T10:21:20.676Z,-479.92
2019-03-09T10:22:20.972Z,-477.59
2019-03-09T10:23:21.286Z,-477.09
2019-03-09T10:24:21.544Z,-474.43
2019-03-09T10:25:21.828Z,-476.28
2019-03-09T10:26:24.653Z,-481.19
2019-03-09T10:27:22.434Z,-477.26
2019-03-09T10:28:22.838Z,-481.19
2019-03-09T10:29:22.991Z,-474.40
2019-03-09T10:30:23.249Z,-479.90
2019-03-09T10:31:23.543Z,-474.03
2019-03-09T10:32:23.853Z,-473.59
2019-03-09T10:33:24.350Z,-476.55
2019-03-09T10:34:24.431Z,-476.75
2019-03-09T10:35:24.712Z,-478.46
2019-03-09T10:36:25.107Z,-474.90
2019-03-09T10:37:25.270Z,-472.31
2019-03-09T10:38:27.874Z,-476.26
2019-03-09T10:39:25.854Z,-476.71
2019-03-09T10:40:26.143Z,-474.93
2019-03-09T10:41:26.445Z,-478.13
2019-03-09T10:42:26.710Z,-474.66
2019-03-09T10:43:27.014Z,-472.55
2019-03-09T10:44:27.332Z,-474.81
2019-03-09T10:45:27.553Z,-472.78
2019-03-09T10:46:27.875Z,-472.46
2019-03-09T10:47:28.126Z,-472.42
2019-03-09T10:48:28.450Z,-469.07
2019-03-09T10:49:28.794Z,-472.53
2019-03-09T10:50:28.991Z,-473.70
2019-03-09T10:51:29.310Z,-469.04
2019-03-09T10:52:29.587Z,-470.72
2019-03-09T10:53:29.972Z,-474.29
2019-03-09T10:54:35.793Z,-444.58
2019-03-09T10:55:31.408Z,-468.71
2019-03-09T10:56:30.695Z,-468.29
2019-03-09T10:57:30.977Z,-466.01
2019-03-09T10:58:31.278Z,-473.42
2019-03-09T10:59:31.579Z,-468.90
2019-03-09T11:00:31.827Z,-468.89
2019-03-09T11:01:32.268Z,-471.67
2019-03-09T11:02:32.403Z,-467.66
2019-03-09T11:03:32.704Z,-468.90
2019-03-09T11:04:32.971Z,-468.25
2019-03-09T11:05:33.239Z,-467.16
2019-03-09T11:06:33.553Z,-465.88
2019-03-09T11:07:33.819Z,-466.72
2019-03-09T11:08:34.147Z,-465.91
2019-03-09T11:09:34.440Z,-468.39
2019-03-09T11:10:34.662Z,-466.43
2019-03-09T11:11:35.055Z,-470.81
2019-03-09T11:12:35.261Z,-471.02
2019-03-09T11:13:35.583Z,-470.12
2019-03-09T11:14:35.816Z,-467.05
2019-03-09T11:15:37.627Z,-469.22
2019-03-09T11:16:36.388Z,-464.80
2019-03-09T11:17:36.744Z,-469.34
2019-03-09T11:18:36.997Z,-461.66
2019-03-09T11:19:37.226Z,-465.44
2019-03-09T11:20:37.516Z,-462.89
2019-03-09T11:21:37.801Z,-466.98
2019-03-09T11:22:38.062Z,-467.45
2019-03-09T11:23:38.460Z,-464.27
2019-03-09T11:24:38.639Z,-464.97
2019-03-09T11:25:38.953Z,-460.75
2019-03-09T11:26:39.230Z,-463.12
2019-03-09T11:27:39.491Z,-460.31
2019-03-09T11:28:39.883Z,-467.38
2019-03-09T11:29:40.077Z,-459.36
2019-03-09T11:30:40.362Z,-459.20
2019-03-09T11:31:40.662Z,-461.16
2019-03-09T11:32:40.928Z,-459.62
2019-03-09T11:33:41.332Z,-457.90
2019-03-09T11:34:41.672Z,-459.72
2019-03-09T11:35:41.799Z,-460.37
2019-03-09T11:36:42.113Z,-461.16
2019-03-09T11:37:42.370Z,-462.61
2019-03-09T11:38:42.637Z,-462.06
2019-03-09T11:39:42.964Z,-461.95
2019-03-09T11:40:43.250Z,-461.34
2019-03-09T11:41:43.561Z,-462.39
2019-03-09T11:42:43.901Z,-461.34
2019-03-09T11:43:44.089Z,-459.65
2019-03-09T11:44:44.413Z,-462.60
2019-03-09T11:45:44.678Z,-458.38
2019-03-09T11:46:44.980Z,-461.64
2019-03-09T11:47:45.252Z,-466.16
2019-03-09T11:48:45.518Z,-462.96
2019-03-09T11:49:45.827Z,-463.71
2019-03-09T11:50:46.161Z,-460.92
2019-03-09T11:51:46.390Z,-462.98
2019-03-09T11:52:46.655Z,-467.10
2019-03-09T11:53:46.939Z,-467.03
2019-03-09T11:54:47.233Z,-463.98
2019-03-09T11:55:47.492Z,-468.55
2019-03-09T11:56:48.033Z,-466.72
2019-03-09T11:57:48.074Z,-463.01
2019-03-09T11:58:48.445Z,-461.64
2019-03-09T11:59:48.649Z,-465.59
2019-03-09T12:00:48.914Z,-470.10
2019-03-09T12:01:49.199Z,-466.77
2019-03-09T12:02:49.479Z,-465.29
2019-03-09T12:03:49.761Z,-468.94
2019-03-09T12:04:50.075Z,-469.58
2019-03-09T12:05:50.334Z,-470.89
2019-03-09T12:06:50.663Z,-464.75
2019-03-09T12:07:50.913Z,-468.47
2019-03-09T12:08:51.182Z,-468.56
2019-03-09T12:09:51.512Z,-466.91